sensor_id;sensor_type;location;lat;lon;timestamp;temperature;humidity
39021;DHT22;25188;51.958;5.842;2024-03-08T00:00:15;4.80;86.20
39021;DHT22;25188;51.958;5.842;2024-03-08T00:02:44;4.80;86.30
39021;DHT22;25188;51.958;5.842;2024-03-08T00:05:10;4.80;86.50
39021;DHT22;25188;51.958;5.842;2024-03-08T00:07:37;4.80;86.50
39021;DHT22;25188;51.958;5.842;2024-03-08T00:10:04;4.80;86.90
39021;DHT22;25188;51.958;5.842;2024-03-08T00:12:30;4.70;86.50
39021;DHT22;25188;51.958;5.842;2024-03-08T00:14:56;4.70;86.50
39021;DHT22;25188;51.958;5.842;2024-03-08T00:17:22;4.70;86.80
39021;DHT22;25188;51.958;5.842;2024-03-08T00:19:54;4.60;86.50
39021;DHT22;25188;51.958;5.842;2024-03-08T00:22:20;4.70;86.60
39021;DHT22;25188;51.958;5.842;2024-03-08T00:24:47;4.60;86.50
39021;DHT22;25188;51.958;5.842;2024-03-08T00:27:16;4.60;86.50
39021;DHT22;25188;51.958;5.842;2024-03-08T00:29:41;4.60;86.60
39021;DHT22;25188;51.958;5.842;2024-03-08T00:32:07;4.50;86.50
39021;DHT22;25188;51.958;5.842;2024-03-08T00:34:36;4.50;86.70
39021;DHT22;25188;51.958;5.842;2024-03-08T00:37:03;4.50;86.60
39021;DHT22;25188;51.958;5.842;2024-03-08T00:39:29;4.50;86.70
39021;DHT22;25188;51.958;5.842;2024-03-08T00:41:55;4.50;86.70
39021;DHT22;25188;51.958;5.842;2024-03-08T00:44:20;4.50;86.80
39021;DHT22;25188;51.958;5.842;2024-03-08T00:46:46;4.40;86.70
39021;DHT22;25188;51.958;5.842;2024-03-08T00:49:12;4.40;86.70
39021;DHT22;25188;51.958;5.842;2024-03-08T00:51:38;4.40;86.70
39021;DHT22;25188;51.958;5.842;2024-03-08T00:54:04;4.30;86.70
39021;DHT22;25188;51.958;5.842;2024-03-08T00:56:29;4.30;86.70
39021;DHT22;25188;51.958;5.842;2024-03-08T00:58:55;4.30;86.70
39021;DHT22;25188;51.958;5.842;2024-03-08T01:01:21;4.30;86.70
39021;DHT22;25188;51.958;5.842;2024-03-08T01:03:46;4.20;86.70
39021;DHT22;25188;51.958;5.842;2024-03-08T01:06:12;4.20;86.70
39021;DHT22;25188;51.958;5.842;2024-03-08T01:08:38;4.20;86.70
39021;DHT22;25188;51.958;5.842;2024-03-08T01:11:04;4.20;86.90
39021;DHT22;25188;51.958;5.842;2024-03-08T01:13:33;4.20;86.80
39021;DHT22;25188;51.958;5.842;2024-03-08T01:15:58;4.10;86.80
39021;DHT22;25188;51.958;5.842;2024-03-08T01:18:24;4.10;86.80
39021;DHT22;25188;51.958;5.842;2024-03-08T01:20:49;4.10;86.90
39021;DHT22;25188;51.958;5.842;2024-03-08T01:23:16;4.10;86.80
39021;DHT22;25188;51.958;5.842;2024-03-08T01:25:41;4.10;86.80
39021;DHT22;25188;51.958;5.842;2024-03-08T01:28:09;4.00;86.80
39021;DHT22;25188;51.958;5.842;2024-03-08T01:30:34;4.00;86.90
39021;DHT22;25188;51.958;5.842;2024-03-08T01:33:02;4.00;86.90
39021;DHT22;25188;51.958;5.842;2024-03-08T01:35:28;4.00;87.00
39021;DHT22;25188;51.958;5.842;2024-03-08T01:37:54;4.00;86.90
39021;DHT22;25188;51.958;5.842;2024-03-08T01:40:20;3.90;86.80
39021;DHT22;25188;51.958;5.842;2024-03-08T01:42:45;3.90;86.70
39021;DHT22;25188;51.958;5.842;2024-03-08T01:45:11;4.00;86.90
39021;DHT22;25188;51.958;5.842;2024-03-08T01:47:38;3.90;86.80
39021;DHT22;25188;51.958;5.842;2024-03-08T01:50:11;3.90;86.70
39021;DHT22;25188;51.958;5.842;2024-03-08T01:52:37;3.90;86.70
39021;DHT22;25188;51.958;5.842;2024-03-08T01:55:04;3.90;86.70
39021;DHT22;25188;51.958;5.842;2024-03-08T01:57:32;3.90;86.60
39021;DHT22;25188;51.958;5.842;2024-03-08T02:00:03;3.90;86.50
39021;DHT22;25188;51.958;5.842;2024-03-08T02:02:32;3.80;86.40
39021;DHT22;25188;51.958;5.842;2024-03-08T02:04:58;3.80;86.40
39021;DHT22;25188;51.958;5.842;2024-03-08T02:07:23;3.80;86.40
39021;DHT22;25188;51.958;5.842;2024-03-08T02:09:49;3.80;86.50
39021;DHT22;25188;51.958;5.842;2024-03-08T02:12:16;3.80;86.40
39021;DHT22;25188;51.958;5.842;2024-03-08T02:14:42;3.70;86.30
39021;DHT22;25188;51.958;5.842;2024-03-08T02:17:09;3.70;86.40
39021;DHT22;25188;51.958;5.842;2024-03-08T02:19:35;3.70;86.30
39021;DHT22;25188;51.958;5.842;2024-03-08T02:22:01;3.70;86.30
39021;DHT22;25188;51.958;5.842;2024-03-08T02:24:30;3.70;86.30
39021;DHT22;25188;51.958;5.842;2024-03-08T02:26:55;3.60;86.40
39021;DHT22;25188;51.958;5.842;2024-03-08T02:29:22;3.60;86.40
39021;DHT22;25188;51.958;5.842;2024-03-08T02:31:51;3.60;86.30
39021;DHT22;25188;51.958;5.842;2024-03-08T02:34:17;3.60;86.40
39021;DHT22;25188;51.958;5.842;2024-03-08T02:36:42;3.60;87.00
39021;DHT22;25188;51.958;5.842;2024-03-08T02:39:08;3.60;86.40
39021;DHT22;25188;51.958;5.842;2024-03-08T02:41:36;3.50;86.30
39021;DHT22;25188;51.958;5.842;2024-03-08T02:44:02;3.50;86.20
39021;DHT22;25188;51.958;5.842;2024-03-08T02:46:27;3.50;86.40
39021;DHT22;25188;51.958;5.842;2024-03-08T02:48:53;3.50;86.30
39021;DHT22;25188;51.958;5.842;2024-03-08T02:51:19;3.40;86.30
39021;DHT22;25188;51.958;5.842;2024-03-08T02:53:45;3.40;86.30
39021;DHT22;25188;51.958;5.842;2024-03-08T02:56:14;3.40;86.30
39021;DHT22;25188;51.958;5.842;2024-03-08T02:58:42;3.40;86.30
39021;DHT22;25188;51.958;5.842;2024-03-08T03:01:08;3.40;86.30
39021;DHT22;25188;51.958;5.842;2024-03-08T03:03:35;3.30;86.30
39021;DHT22;25188;51.958;5.842;2024-03-08T03:06:01;3.30;86.20
39021;DHT22;25188;51.958;5.842;2024-03-08T03:08:27;3.30;86.30
39021;DHT22;25188;51.958;5.842;2024-03-08T03:10:52;3.30;86.20
39021;DHT22;25188;51.958;5.842;2024-03-08T03:13:18;3.30;86.30
39021;DHT22;25188;51.958;5.842;2024-03-08T03:15:46;3.30;86.30
39021;DHT22;25188;51.958;5.842;2024-03-08T03:18:12;3.30;86.50
39021;DHT22;25188;51.958;5.842;2024-03-08T03:20:37;3.20;86.30
39021;DHT22;25188;51.958;5.842;2024-03-08T03:23:08;3.30;86.40
39021;DHT22;25188;51.958;5.842;2024-03-08T03:25:34;3.20;86.40
39021;DHT22;25188;51.958;5.842;2024-03-08T03:28:03;3.20;86.40
39021;DHT22;25188;51.958;5.842;2024-03-08T03:30:30;3.20;86.40
39021;DHT22;25188;51.958;5.842;2024-03-08T03:32:59;3.10;86.40
39021;DHT22;25188;51.958;5.842;2024-03-08T03:35:32;3.10;86.50
39021;DHT22;25188;51.958;5.842;2024-03-08T03:37:58;3.10;86.50
39021;DHT22;25188;51.958;5.842;2024-03-08T03:40:29;3.10;86.40
39021;DHT22;25188;51.958;5.842;2024-03-08T03:42:55;3.10;86.40
39021;DHT22;25188;51.958;5.842;2024-03-08T03:45:21;3.10;86.60
39021;DHT22;25188;51.958;5.842;2024-03-08T03:47:47;3.10;86.60
39021;DHT22;25188;51.958;5.842;2024-03-08T03:50:13;3.10;86.60
39021;DHT22;25188;51.958;5.842;2024-03-08T03:52:38;3.00;86.60
39021;DHT22;25188;51.958;5.842;2024-03-08T03:55:04;3.00;86.60
39021;DHT22;25188;51.958;5.842;2024-03-08T03:57:33;3.00;86.60
39021;DHT22;25188;51.958;5.842;2024-03-08T03:59:59;3.00;86.60
39021;DHT22;25188;51.958;5.842;2024-03-08T04:02:25;3.00;86.60
39021;DHT22;25188;51.958;5.842;2024-03-08T04:04:52;2.90;86.60
39021;DHT22;25188;51.958;5.842;2024-03-08T04:07:18;2.90;86.60
39021;DHT22;25188;51.958;5.842;2024-03-08T04:09:43;2.90;86.70
39021;DHT22;25188;51.958;5.842;2024-03-08T04:12:09;2.90;86.80
39021;DHT22;25188;51.958;5.842;2024-03-08T04:14:35;2.90;86.90
39021;DHT22;25188;51.958;5.842;2024-03-08T04:17:01;2.80;86.80
39021;DHT22;25188;51.958;5.842;2024-03-08T04:19:28;2.80;86.90
39021;DHT22;25188;51.958;5.842;2024-03-08T04:21:54;2.90;86.90
39021;DHT22;25188;51.958;5.842;2024-03-08T04:24:20;2.80;86.90
39021;DHT22;25188;51.958;5.842;2024-03-08T04:26:46;2.80;87.10
39021;DHT22;25188;51.958;5.842;2024-03-08T04:29:12;2.80;87.10
39021;DHT22;25188;51.958;5.842;2024-03-08T04:31:40;2.80;87.10
39021;DHT22;25188;51.958;5.842;2024-03-08T04:34:06;2.80;87.10
39021;DHT22;25188;51.958;5.842;2024-03-08T04:36:31;2.80;87.80
39021;DHT22;25188;51.958;5.842;2024-03-08T04:38:59;2.70;87.10
39021;DHT22;25188;51.958;5.842;2024-03-08T04:41:26;2.70;87.20
39021;DHT22;25188;51.958;5.842;2024-03-08T04:43:51;2.70;87.30
39021;DHT22;25188;51.958;5.842;2024-03-08T04:46:17;2.70;87.30
39021;DHT22;25188;51.958;5.842;2024-03-08T04:48:43;2.70;87.40
39021;DHT22;25188;51.958;5.842;2024-03-08T04:51:09;2.70;87.30
39021;DHT22;25188;51.958;5.842;2024-03-08T04:53:35;2.70;87.40
39021;DHT22;25188;51.958;5.842;2024-03-08T04:56:01;2.70;87.50
39021;DHT22;25188;51.958;5.842;2024-03-08T04:58:32;2.70;87.60
39021;DHT22;25188;51.958;5.842;2024-03-08T05:01:00;2.60;87.60
39021;DHT22;25188;51.958;5.842;2024-03-08T05:03:26;2.70;87.60
39021;DHT22;25188;51.958;5.842;2024-03-08T05:05:52;2.70;87.60
39021;DHT22;25188;51.958;5.842;2024-03-08T05:08:18;2.60;87.60
39021;DHT22;25188;51.958;5.842;2024-03-08T05:10:48;2.60;87.50
39021;DHT22;25188;51.958;5.842;2024-03-08T05:13:13;2.60;87.60
39021;DHT22;25188;51.958;5.842;2024-03-08T05:15:39;2.60;87.70
39021;DHT22;25188;51.958;5.842;2024-03-08T05:18:05;2.60;87.60
39021;DHT22;25188;51.958;5.842;2024-03-08T05:20:31;2.60;87.60
39021;DHT22;25188;51.958;5.842;2024-03-08T05:22:57;2.60;87.60
39021;DHT22;25188;51.958;5.842;2024-03-08T05:25:26;2.60;87.70
39021;DHT22;25188;51.958;5.842;2024-03-08T05:27:52;2.60;87.90
39021;DHT22;25188;51.958;5.842;2024-03-08T05:30:18;2.50;87.80
39021;DHT22;25188;51.958;5.842;2024-03-08T05:32:44;2.50;87.90
39021;DHT22;25188;51.958;5.842;2024-03-08T05:35:12;2.60;88.00
39021;DHT22;25188;51.958;5.842;2024-03-08T05:37:38;2.50;88.10
39021;DHT22;25188;51.958;5.842;2024-03-08T05:40:08;2.50;88.00
39021;DHT22;25188;51.958;5.842;2024-03-08T05:42:36;2.50;88.10
39021;DHT22;25188;51.958;5.842;2024-03-08T05:45:05;2.50;88.10
39021;DHT22;25188;51.958;5.842;2024-03-08T05:47:36;2.50;88.10
39021;DHT22;25188;51.958;5.842;2024-03-08T05:50:02;2.50;88.20
39021;DHT22;25188;51.958;5.842;2024-03-08T05:52:27;2.50;88.10
39021;DHT22;25188;51.958;5.842;2024-03-08T05:54:53;2.50;88.10
39021;DHT22;25188;51.958;5.842;2024-03-08T05:57:19;2.50;88.20
39021;DHT22;25188;51.958;5.842;2024-03-08T05:59:44;2.50;88.20
39021;DHT22;25188;51.958;5.842;2024-03-08T06:02:11;2.50;88.30
39021;DHT22;25188;51.958;5.842;2024-03-08T06:04:36;2.50;88.20
39021;DHT22;25188;51.958;5.842;2024-03-08T06:07:03;2.40;88.20
39021;DHT22;25188;51.958;5.842;2024-03-08T06:09:29;2.40;88.40
39021;DHT22;25188;51.958;5.842;2024-03-08T06:11:55;2.40;88.50
39021;DHT22;25188;51.958;5.842;2024-03-08T06:14:22;2.40;89.10
39021;DHT22;25188;51.958;5.842;2024-03-08T06:16:48;2.40;88.50
39021;DHT22;25188;51.958;5.842;2024-03-08T06:19:15;2.40;88.60
39021;DHT22;25188;51.958;5.842;2024-03-08T06:21:41;2.40;88.70
39021;DHT22;25188;51.958;5.842;2024-03-08T06:24:07;2.40;88.70
39021;DHT22;25188;51.958;5.842;2024-03-08T06:26:32;2.40;88.80
39021;DHT22;25188;51.958;5.842;2024-03-08T06:28:58;2.40;88.90
39021;DHT22;25188;51.958;5.842;2024-03-08T06:31:24;2.40;89.10
39021;DHT22;25188;51.958;5.842;2024-03-08T06:33:50;2.40;89.10
39021;DHT22;25188;51.958;5.842;2024-03-08T06:36:18;2.40;89.30
39021;DHT22;25188;51.958;5.842;2024-03-08T06:38:49;2.50;89.20
39021;DHT22;25188;51.958;5.842;2024-03-08T06:41:15;2.50;89.10
39021;DHT22;25188;51.958;5.842;2024-03-08T06:43:45;2.50;89.00
39021;DHT22;25188;51.958;5.842;2024-03-08T06:46:11;2.60;89.70
39021;DHT22;25188;51.958;5.842;2024-03-08T06:48:41;2.50;89.20
39021;DHT22;25188;51.958;5.842;2024-03-08T06:51:07;2.50;89.20
39021;DHT22;25188;51.958;5.842;2024-03-08T06:53:33;2.50;89.20
39021;DHT22;25188;51.958;5.842;2024-03-08T06:56:01;2.60;89.30
39021;DHT22;25188;51.958;5.842;2024-03-08T06:58:27;2.50;89.30
39021;DHT22;25188;51.958;5.842;2024-03-08T07:00:53;2.60;89.30
39021;DHT22;25188;51.958;5.842;2024-03-08T07:03:19;2.60;89.40
39021;DHT22;25188;51.958;5.842;2024-03-08T07:05:47;2.70;89.60
39021;DHT22;25188;51.958;5.842;2024-03-08T07:08:13;2.70;89.40
39021;DHT22;25188;51.958;5.842;2024-03-08T07:10:39;2.70;89.40
39021;DHT22;25188;51.958;5.842;2024-03-08T07:13:07;2.80;89.50
39021;DHT22;25188;51.958;5.842;2024-03-08T07:15:33;2.80;89.60
39021;DHT22;25188;51.958;5.842;2024-03-08T07:17:59;2.80;89.50
39021;DHT22;25188;51.958;5.842;2024-03-08T07:20:25;2.90;89.50
39021;DHT22;25188;51.958;5.842;2024-03-08T07:22:51;2.90;89.50
39021;DHT22;25188;51.958;5.842;2024-03-08T07:25:16;2.90;89.60
39021;DHT22;25188;51.958;5.842;2024-03-08T07:27:53;3.00;89.50
39021;DHT22;25188;51.958;5.842;2024-03-08T07:30:23;3.00;89.60
39021;DHT22;25188;51.958;5.842;2024-03-08T07:33:07;3.10;89.50
39021;DHT22;25188;51.958;5.842;2024-03-08T07:35:40;3.10;89.50
39021;DHT22;25188;51.958;5.842;2024-03-08T07:38:06;3.10;89.40
39021;DHT22;25188;51.958;5.842;2024-03-08T07:40:40;3.20;89.40
39021;DHT22;25188;51.958;5.842;2024-03-08T07:43:10;3.20;89.40
39021;DHT22;25188;51.958;5.842;2024-03-08T07:45:39;3.20;89.40
39021;DHT22;25188;51.958;5.842;2024-03-08T07:48:06;3.30;89.50
39021;DHT22;25188;51.958;5.842;2024-03-08T07:50:39;3.30;89.50
39021;DHT22;25188;51.958;5.842;2024-03-08T07:53:05;3.40;89.40
39021;DHT22;25188;51.958;5.842;2024-03-08T07:55:33;3.40;89.40
39021;DHT22;25188;51.958;5.842;2024-03-08T07:57:59;3.50;89.40
39021;DHT22;25188;51.958;5.842;2024-03-08T08:00:25;3.50;89.30
39021;DHT22;25188;51.958;5.842;2024-03-08T08:02:53;3.50;89.20
39021;DHT22;25188;51.958;5.842;2024-03-08T08:05:19;3.60;89.10
39021;DHT22;25188;51.958;5.842;2024-03-08T08:07:45;3.60;89.20
39021;DHT22;25188;51.958;5.842;2024-03-08T08:10:12;3.70;89.20
39021;DHT22;25188;51.958;5.842;2024-03-08T08:12:47;3.70;89.10
39021;DHT22;25188;51.958;5.842;2024-03-08T08:15:13;3.80;89.00
39021;DHT22;25188;51.958;5.842;2024-03-08T08:17:41;3.80;88.80
39021;DHT22;25188;51.958;5.842;2024-03-08T08:20:09;3.90;88.80
39021;DHT22;25188;51.958;5.842;2024-03-08T08:22:34;3.90;88.60
39021;DHT22;25188;51.958;5.842;2024-03-08T08:25:00;4.00;88.60
39021;DHT22;25188;51.958;5.842;2024-03-08T08:27:27;4.10;88.60
39021;DHT22;25188;51.958;5.842;2024-03-08T08:29:52;4.10;88.50
39021;DHT22;25188;51.958;5.842;2024-03-08T08:32:18;4.20;88.60
39021;DHT22;25188;51.958;5.842;2024-03-08T08:34:45;4.20;88.50
39021;DHT22;25188;51.958;5.842;2024-03-08T08:37:11;4.30;88.40
39021;DHT22;25188;51.958;5.842;2024-03-08T08:39:37;4.40;88.40
39021;DHT22;25188;51.958;5.842;2024-03-08T08:42:03;4.40;88.30
39021;DHT22;25188;51.958;5.842;2024-03-08T08:44:29;4.50;88.30
39021;DHT22;25188;51.958;5.842;2024-03-08T08:46:57;4.60;88.20
39021;DHT22;25188;51.958;5.842;2024-03-08T08:49:22;4.60;88.00
39021;DHT22;25188;51.958;5.842;2024-03-08T08:51:52;4.70;87.90
39021;DHT22;25188;51.958;5.842;2024-03-08T08:54:18;4.70;87.80
39021;DHT22;25188;51.958;5.842;2024-03-08T08:56:44;4.80;87.80
39021;DHT22;25188;51.958;5.842;2024-03-08T08:59:10;4.90;87.70
39021;DHT22;25188;51.958;5.842;2024-03-08T09:01:40;5.00;87.50
39021;DHT22;25188;51.958;5.842;2024-03-08T09:04:05;5.00;87.40
39021;DHT22;25188;51.958;5.842;2024-03-08T09:06:31;5.10;87.40
39021;DHT22;25188;51.958;5.842;2024-03-08T09:08:57;5.20;87.40
39021;DHT22;25188;51.958;5.842;2024-03-08T09:11:23;5.30;86.90
39021;DHT22;25188;51.958;5.842;2024-03-08T09:13:51;5.40;87.10
39021;DHT22;25188;51.958;5.842;2024-03-08T09:16:17;5.50;86.90
39021;DHT22;25188;51.958;5.842;2024-03-08T09:18:42;5.60;86.70
39021;DHT22;25188;51.958;5.842;2024-03-08T09:21:08;5.70;86.50
39021;DHT22;25188;51.958;5.842;2024-03-08T09:23:38;5.70;86.40
39021;DHT22;25188;51.958;5.842;2024-03-08T09:26:05;5.80;86.10
39021;DHT22;25188;51.958;5.842;2024-03-08T09:28:34;5.90;86.00
39021;DHT22;25188;51.958;5.842;2024-03-08T09:31:01;6.00;86.10
39021;DHT22;25188;51.958;5.842;2024-03-08T09:33:27;6.10;85.90
39021;DHT22;25188;51.958;5.842;2024-03-08T09:35:54;6.20;85.70
39021;DHT22;25188;51.958;5.842;2024-03-08T09:38:20;6.30;85.80
39021;DHT22;25188;51.958;5.842;2024-03-08T09:40:46;6.40;85.70
39021;DHT22;25188;51.958;5.842;2024-03-08T09:43:13;6.50;85.60
39021;DHT22;25188;51.958;5.842;2024-03-08T09:45:40;6.60;85.60
39021;DHT22;25188;51.958;5.842;2024-03-08T09:48:11;6.70;85.40
39021;DHT22;25188;51.958;5.842;2024-03-08T09:50:43;6.80;85.30
39021;DHT22;25188;51.958;5.842;2024-03-08T09:53:09;6.90;85.10
39021;DHT22;25188;51.958;5.842;2024-03-08T09:55:37;7.00;84.70
39021;DHT22;25188;51.958;5.842;2024-03-08T09:58:06;7.10;84.60
39021;DHT22;25188;51.958;5.842;2024-03-08T10:00:56;7.20;84.60
39021;DHT22;25188;51.958;5.842;2024-03-08T10:03:30;7.40;84.50
39021;DHT22;25188;51.958;5.842;2024-03-08T10:05:58;7.60;84.10
39021;DHT22;25188;51.958;5.842;2024-03-08T10:08:27;7.80;84.00
39021;DHT22;25188;51.958;5.842;2024-03-08T10:10:55;8.10;83.80
39021;DHT22;25188;51.958;5.842;2024-03-08T10:13:25;8.50;83.80
39021;DHT22;25188;51.958;5.842;2024-03-08T10:15:52;8.90;84.30
39021;DHT22;25188;51.958;5.842;2024-03-08T10:18:18;9.40;85.00
39021;DHT22;25188;51.958;5.842;2024-03-08T10:20:44;10.00;85.80
39021;DHT22;25188;51.958;5.842;2024-03-08T10:23:10;10.60;85.20
39021;DHT22;25188;51.958;5.842;2024-03-08T10:25:36;11.40;85.80
39021;DHT22;25188;51.958;5.842;2024-03-08T10:28:03;12.20;85.70
39021;DHT22;25188;51.958;5.842;2024-03-08T10:30:30;12.90;85.40
39021;DHT22;25188;51.958;5.842;2024-03-08T10:32:56;13.70;84.70
39021;DHT22;25188;51.958;5.842;2024-03-08T10:35:22;14.50;80.90
39021;DHT22;25188;51.958;5.842;2024-03-08T10:37:50;15.20;78.90
39021;DHT22;25188;51.958;5.842;2024-03-08T10:40:25;15.90;77.70
39021;DHT22;25188;51.958;5.842;2024-03-08T10:42:59;16.60;75.20
39021;DHT22;25188;51.958;5.842;2024-03-08T10:45:38;17.20;72.60
39021;DHT22;25188;51.958;5.842;2024-03-08T10:50:41;18.20;69.40
39021;DHT22;25188;51.958;5.842;2024-03-08T10:53:11;18.70;68.70
39021;DHT22;25188;51.958;5.842;2024-03-08T10:55:40;19.20;65.60
39021;DHT22;25188;51.958;5.842;2024-03-08T10:58:09;19.60;63.50
39021;DHT22;25188;51.958;5.842;2024-03-08T11:00:35;20.00;61.90
39021;DHT22;25188;51.958;5.842;2024-03-08T11:03:01;20.50;61.00
39021;DHT22;25188;51.958;5.842;2024-03-08T11:05:40;20.90;59.60
39021;DHT22;25188;51.958;5.842;2024-03-08T11:10:48;21.60;55.90
39021;DHT22;25188;51.958;5.842;2024-03-08T11:13:50;21.80;54.50
39021;DHT22;25188;51.958;5.842;2024-03-08T11:18:58;22.50;52.60
39021;DHT22;25188;51.958;5.842;2024-03-08T11:21:31;22.80;51.70
39021;DHT22;25188;51.958;5.842;2024-03-08T11:24:07;23.00;50.40
39021;DHT22;25188;51.958;5.842;2024-03-08T11:26:33;23.10;49.50
39021;DHT22;25188;51.958;5.842;2024-03-08T11:35:23;23.80;46.50
39021;DHT22;25188;51.958;5.842;2024-03-08T13:10:57;25.70;36.40
39021;DHT22;25188;51.958;5.842;2024-03-08T13:13:24;25.70;37.00
39021;DHT22;25188;51.958;5.842;2024-03-08T13:15:50;25.70;36.00
39021;DHT22;25188;51.958;5.842;2024-03-08T13:18:16;25.70;36.50
39021;DHT22;25188;51.958;5.842;2024-03-08T13:20:43;25.80;36.80
39021;DHT22;25188;51.958;5.842;2024-03-08T13:23:14;25.90;36.90
39021;DHT22;25188;51.958;5.842;2024-03-08T13:25:40;26.00;36.60
39021;DHT22;25188;51.958;5.842;2024-03-08T13:28:06;26.00;35.60
39021;DHT22;25188;51.958;5.842;2024-03-08T13:30:32;26.00;35.10
39021;DHT22;25188;51.958;5.842;2024-03-08T13:32:57;26.10;35.60
39021;DHT22;25188;51.958;5.842;2024-03-08T13:35:23;26.20;35.80
39021;DHT22;25188;51.958;5.842;2024-03-08T13:37:53;26.50;35.80
39021;DHT22;25188;51.958;5.842;2024-03-08T13:40:19;26.60;35.80
39021;DHT22;25188;51.958;5.842;2024-03-08T13:42:46;26.80;35.80
39021;DHT22;25188;51.958;5.842;2024-03-08T13:45:12;26.90;35.50
39021;DHT22;25188;51.958;5.842;2024-03-08T13:47:40;26.80;34.50
39021;DHT22;25188;51.958;5.842;2024-03-08T13:50:07;26.80;34.30
39021;DHT22;25188;51.958;5.842;2024-03-08T13:52:37;26.70;34.60
39021;DHT22;25188;51.958;5.842;2024-03-08T13:55:04;26.80;35.00
39021;DHT22;25188;51.958;5.842;2024-03-08T13:57:31;26.90;34.70
39021;DHT22;25188;51.958;5.842;2024-03-08T13:59:58;26.80;35.00
39021;DHT22;25188;51.958;5.842;2024-03-08T14:02:23;26.60;34.50
39021;DHT22;25188;51.958;5.842;2024-03-08T14:04:53;26.60;34.70
39021;DHT22;25188;51.958;5.842;2024-03-08T14:07:20;26.60;34.70
39021;DHT22;25188;51.958;5.842;2024-03-08T14:09:46;26.70;34.30
39021;DHT22;25188;51.958;5.842;2024-03-08T14:12:12;26.70;34.20
39021;DHT22;25188;51.958;5.842;2024-03-08T14:14:42;26.50;33.60
39021;DHT22;25188;51.958;5.842;2024-03-08T14:17:07;26.40;33.90
39021;DHT22;25188;51.958;5.842;2024-03-08T14:19:39;26.40;34.10
39021;DHT22;25188;51.958;5.842;2024-03-08T14:22:05;26.50;34.30
39021;DHT22;25188;51.958;5.842;2024-03-08T14:24:36;26.50;34.30
39021;DHT22;25188;51.958;5.842;2024-03-08T14:27:03;26.40;34.00
39021;DHT22;25188;51.958;5.842;2024-03-08T14:29:29;26.50;34.10
39021;DHT22;25188;51.958;5.842;2024-03-08T14:31:58;26.40;33.90
39021;DHT22;25188;51.958;5.842;2024-03-08T14:34:28;26.40;34.00
39021;DHT22;25188;51.958;5.842;2024-03-08T14:36:55;26.30;34.10
39021;DHT22;25188;51.958;5.842;2024-03-08T14:39:21;26.20;33.60
39021;DHT22;25188;51.958;5.842;2024-03-08T14:41:52;26.10;33.90
39021;DHT22;25188;51.958;5.842;2024-03-08T14:44:22;26.00;34.00
39021;DHT22;25188;51.958;5.842;2024-03-08T14:46:52;26.00;34.20
39021;DHT22;25188;51.958;5.842;2024-03-08T14:49:18;26.00;34.20
39021;DHT22;25188;51.958;5.842;2024-03-08T14:51:44;25.90;34.20
39021;DHT22;25188;51.958;5.842;2024-03-08T14:54:10;26.00;34.20
39021;DHT22;25188;51.958;5.842;2024-03-08T14:56:37;26.10;34.20
39021;DHT22;25188;51.958;5.842;2024-03-08T14:59:02;26.10;34.20
39021;DHT22;25188;51.958;5.842;2024-03-08T15:01:30;26.10;33.90
39021;DHT22;25188;51.958;5.842;2024-03-08T15:03:58;26.10;34.00
39021;DHT22;25188;51.958;5.842;2024-03-08T15:06:37;26.10;34.00
39021;DHT22;25188;51.958;5.842;2024-03-08T15:09:03;26.20;34.20
39021;DHT22;25188;51.958;5.842;2024-03-08T15:11:40;26.20;34.10
39021;DHT22;25188;51.958;5.842;2024-03-08T15:14:07;26.10;34.00
39021;DHT22;25188;51.958;5.842;2024-03-08T15:16:37;25.90;33.90
39021;DHT22;25188;51.958;5.842;2024-03-08T15:19:05;25.80;34.40
39021;DHT22;25188;51.958;5.842;2024-03-08T15:21:31;25.80;34.50
39021;DHT22;25188;51.958;5.842;2024-03-08T15:23:57;25.70;34.30
39021;DHT22;25188;51.958;5.842;2024-03-08T15:26:23;25.50;34.30
39021;DHT22;25188;51.958;5.842;2024-03-08T15:28:51;25.40;34.30
39021;DHT22;25188;51.958;5.842;2024-03-08T15:31:17;25.20;34.30
39021;DHT22;25188;51.958;5.842;2024-03-08T15:33:46;25.10;35.10
39021;DHT22;25188;51.958;5.842;2024-03-08T15:36:17;25.00;34.50
39021;DHT22;25188;51.958;5.842;2024-03-08T15:38:46;24.80;34.50
39021;DHT22;25188;51.958;5.842;2024-03-08T15:41:13;24.50;34.60
39021;DHT22;25188;51.958;5.842;2024-03-08T15:43:42;24.40;34.90
39021;DHT22;25188;51.958;5.842;2024-03-08T15:46:08;24.20;34.90
39021;DHT22;25188;51.958;5.842;2024-03-08T15:48:36;24.00;35.00
39021;DHT22;25188;51.958;5.842;2024-03-08T15:51:03;23.80;35.00
39021;DHT22;25188;51.958;5.842;2024-03-08T15:53:31;23.50;35.20
39021;DHT22;25188;51.958;5.842;2024-03-08T15:55:58;23.40;35.50
39021;DHT22;25188;51.958;5.842;2024-03-08T15:58:27;23.30;35.70
39021;DHT22;25188;51.958;5.842;2024-03-08T16:00:52;23.20;35.70
39021;DHT22;25188;51.958;5.842;2024-03-08T16:03:18;23.00;35.70
39021;DHT22;25188;51.958;5.842;2024-03-08T16:05:45;22.80;35.90
39021;DHT22;25188;51.958;5.842;2024-03-08T16:08:12;22.60;36.20
39021;DHT22;25188;51.958;5.842;2024-03-08T16:10:43;22.40;36.40
39021;DHT22;25188;51.958;5.842;2024-03-08T16:13:15;22.20;36.70
39021;DHT22;25188;51.958;5.842;2024-03-08T16:15:45;22.00;36.90
39021;DHT22;25188;51.958;5.842;2024-03-08T16:18:12;21.70;37.10
39021;DHT22;25188;51.958;5.842;2024-03-08T16:20:39;21.20;37.40
39021;DHT22;25188;51.958;5.842;2024-03-08T16:23:05;20.90;37.80
39021;DHT22;25188;51.958;5.842;2024-03-08T16:25:31;20.50;38.20
39021;DHT22;25188;51.958;5.842;2024-03-08T16:27:57;20.30;38.60
39021;DHT22;25188;51.958;5.842;2024-03-08T16:30:22;20.00;38.80
39021;DHT22;25188;51.958;5.842;2024-03-08T16:32:49;19.60;39.20
39021;DHT22;25188;51.958;5.842;2024-03-08T16:35:19;19.20;39.70
39021;DHT22;25188;51.958;5.842;2024-03-08T16:37:44;18.80;40.10
39021;DHT22;25188;51.958;5.842;2024-03-08T16:40:11;18.60;40.60
39021;DHT22;25188;51.958;5.842;2024-03-08T16:42:49;18.30;40.80
39021;DHT22;25188;51.958;5.842;2024-03-08T16:45:19;18.10;41.10
39021;DHT22;25188;51.958;5.842;2024-03-08T16:47:45;17.90;41.50
39021;DHT22;25188;51.958;5.842;2024-03-08T16:50:11;17.70;41.80
39021;DHT22;25188;51.958;5.842;2024-03-08T16:52:41;17.40;42.20
39021;DHT22;25188;51.958;5.842;2024-03-08T16:55:10;17.20;42.50
39021;DHT22;25188;51.958;5.842;2024-03-08T16:57:44;17.00;42.60
39021;DHT22;25188;51.958;5.842;2024-03-08T17:00:18;16.80;43.00
39021;DHT22;25188;51.958;5.842;2024-03-08T17:02:47;16.70;43.20
39021;DHT22;25188;51.958;5.842;2024-03-08T17:05:14;16.40;43.50
39021;DHT22;25188;51.958;5.842;2024-03-08T17:07:45;16.20;43.80
39021;DHT22;25188;51.958;5.842;2024-03-08T17:10:15;15.90;44.10
39021;DHT22;25188;51.958;5.842;2024-03-08T17:12:44;15.60;44.90
39021;DHT22;25188;51.958;5.842;2024-03-08T17:15:10;15.40;44.90
39021;DHT22;25188;51.958;5.842;2024-03-08T17:17:39;15.20;45.30
39021;DHT22;25188;51.958;5.842;2024-03-08T17:20:08;14.90;45.50
39021;DHT22;25188;51.958;5.842;2024-03-08T17:22:40;14.60;46.20
39021;DHT22;25188;51.958;5.842;2024-03-08T17:25:06;14.40;46.80
39021;DHT22;25188;51.958;5.842;2024-03-08T17:27:33;14.10;47.00